Time;durP1;ratioP1;P1;durP2;ratioP2;P2;SDS_P1;SDS_P2;PMS_P1;PMS_P2;Temp;Humidity;BMP_temperature;BMP_pressure;BME280_temperature;BME280_humidity;BME280_pressure;Samples;Min_cycle;Max_cycle;Signal;HPM_P1;HPM_P2
2022/07/19 00:00:12;;;;;;;6.47;2.45;;;21.90;81.30;;;;;;5092536;28;20467;-45
2022/07/19 00:02:38;;;;;;;3.38;2.00;;;21.90;81.80;;;;;;5107023;28;20525;-42
2022/07/19 00:05:05;;;;;;;6.00;2.15;;;21.90;81.80;;;;;;5110588;27;20015;-46
2022/07/19 00:07:31;;;;;;;4.28;2.10;;;21.90;81.50;;;;;;5118481;27;20114;-48
2022/07/19 00:09:56;;;;;;;3.38;2.10;;;22.00;80.70;;;;;;5094865;28;20028;-44
2022/07/19 00:12:22;;;;;;;4.55;1.92;;;22.00;82.20;;;;;;5123996;27;20478;-51
2022/07/19 00:14:48;;;;;;;3.65;2.00;;;22.00;83.80;;;;;;5119916;27;20019;-43
2022/07/19 00:17:13;;;;;;;3.15;2.13;;;22.00;82.70;;;;;;5102831;27;20423;-45
2022/07/19 00:19:39;;;;;;;4.65;2.28;;;21.90;82.90;;;;;;5122163;27;20023;-44
2022/07/19 00:22:06;;;;;;;3.35;2.25;;;21.90;82.20;;;;;;5114550;27;20028;-42
2022/07/19 00:24:32;;;;;;;6.35;2.10;;;21.90;81.20;;;;;;5108798;27;20056;-47
2022/07/19 00:26:57;;;;;;;3.78;2.00;;;21.80;82.00;;;;;;5115111;27;20020;-47
2022/07/19 00:29:23;;;;;;;4.18;2.00;;;21.80;80.60;;;;;;5119463;27;20034;-41
2022/07/19 00:31:49;;;;;;;4.50;2.20;;;21.80;80.70;;;;;;5110704;27;20035;-44
2022/07/19 00:34:15;;;;;;;4.32;2.20;;;21.80;81.30;;;;;;5120703;27;20022;-47
2022/07/19 00:36:41;;;;;;;3.85;2.17;;;21.80;81.90;;;;;;5127266;27;20080;-51
2022/07/19 00:39:07;;;;;;;2.80;2.05;;;21.80;81.70;;;;;;5122378;27;20047;-45
2022/07/19 00:41:41;;;;;;;4.30;2.30;;;21.80;82.30;;;;;;5119886;27;20058;-44
2022/07/19 00:44:07;;;;;;;3.78;2.33;;;21.70;80.40;;;;;;5129583;27;20028;-43
2022/07/19 00:46:33;;;;;;;5.50;2.10;;;21.70;80.80;;;;;;5130666;27;20022;-43
2022/07/19 00:48:58;;;;;;;4.25;2.00;;;21.60;81.50;;;;;;5122450;27;20087;-47
2022/07/19 00:51:24;;;;;;;5.63;2.20;;;21.50;82.40;;;;;;5109762;28;20040;-45
2022/07/19 00:53:51;;;;;;;4.85;2.15;;;21.60;81.50;;;;;;5091886;28;20123;-46
2022/07/19 00:56:18;;;;;;;3.88;2.10;;;21.60;82.10;;;;;;5090417;28;20028;-47
2022/07/19 00:58:44;;;;;;;4.70;2.08;;;21.70;82.50;;;;;;5089665;28;20020;-47
2022/07/19 01:01:10;;;;;;;4.45;2.30;;;21.60;83.20;;;;;;5089805;28;20017;-46
2022/07/19 01:03:38;;;;;;;4.63;2.50;;;21.60;83.60;;;;;;5089375;28;20016;-47
2022/07/19 01:06:05;;;;;;;4.15;2.40;;;21.50;84.40;;;;;;5089668;28;20027;-48
2022/07/19 01:08:31;;;;;;;4.07;2.30;;;21.40;85.10;;;;;;5089381;28;20036;-48
2022/07/19 01:10:57;;;;;;;4.15;2.30;;;21.30;86.30;;;;;;5089873;28;20050;-48
2022/07/19 01:13:23;;;;;;;3.05;2.05;;;21.20;86.70;;;;;;5091518;28;20063;-43
2022/07/19 01:15:48;;;;;;;3.75;2.20;;;21.10;87.20;;;;;;5091392;28;20059;-47
2022/07/19 01:18:14;;;;;;;4.18;2.28;;;21.10;88.70;;;;;;5091557;28;20110;-46
2022/07/19 01:20:40;;;;;;;4.78;2.65;;;21.00;88.00;;;;;;5099948;28;20019;-46
2022/07/19 01:23:06;;;;;;;2.90;1.98;;;21.10;87.00;;;;;;5106918;28;20056;-46
2022/07/19 01:25:34;;;;;;;5.47;2.40;;;21.10;87.20;;;;;;5095514;28;20021;-45
2022/07/19 01:28:01;;;;;;;3.90;2.30;;;21.20;85.80;;;;;;5091139;28;20391;-49
2022/07/19 01:30:28;;;;;;;4.38;2.20;;;21.20;83.20;;;;;;5091118;28;20032;-42
2022/07/19 01:32:54;;;;;;;4.32;2.47;;;21.30;85.10;;;;;;5091029;28;20113;-44
2022/07/19 01:35:20;;;;;;;5.53;2.17;;;21.40;85.50;;;;;;5091150;28;20035;-45
2022/07/19 01:37:47;;;;;;;8.85;2.50;;;21.50;83.70;;;;;;5090991;28;20095;-45
2022/07/19 01:40:15;;;;;;;3.80;2.42;;;21.50;83.60;;;;;;5091035;28;20499;-42
2022/07/19 01:42:41;;;;;;;5.55;2.50;;;21.50;83.60;;;;;;5090818;28;20028;-41
2022/07/19 01:45:09;;;;;;;4.20;2.47;;;21.50;83.90;;;;;;5091004;28;20070;-42
2022/07/19 01:47:36;;;;;;;7.10;2.70;;;21.50;83.00;;;;;;5090862;28;20028;-42
2022/07/19 01:50:04;;;;;;;6.53;2.42;;;21.50;82.80;;;;;;5104729;28;20040;-42
2022/07/19 01:52:29;;;;;;;5.47;2.17;;;21.50;83.50;;;;;;5090862;28;20040;-41
2022/07/19 01:54:55;;;;;;;3.75;2.17;;;21.60;82.40;;;;;;5090727;28;20030;-42
2022/07/19 01:57:21;;;;;;;4.40;2.45;;;21.60;81.20;;;;;;5075132;28;20028;-42
2022/07/19 01:59:46;;;;;;;4.22;2.40;;;21.60;81.50;;;;;;5112033;28;20012;-41
2022/07/19 02:02:12;;;;;;;3.83;2.50;;;21.60;82.70;;;;;;5109063;28;20027;-42
2022/07/19 02:04:38;;;;;;;5.10;2.33;;;21.70;81.10;;;;;;5103179;28;20072;-41
2022/07/19 02:07:03;;;;;;;6.03;3.22;;;21.80;78.60;;;;;;5100862;28;20062;-41
2022/07/19 02:09:29;;;;;;;6.57;2.50;;;21.80;79.40;;;;;;5095178;28;20028;-42
2022/07/19 02:11:55;;;;;;;6.78;2.38;;;21.80;80.40;;;;;;5094805;28;20040;-41
2022/07/19 02:14:21;;;;;;;3.88;2.40;;;21.80;81.40;;;;;;5094888;28;20020;-41
2022/07/19 02:16:47;;;;;;;3.72;2.10;;;21.80;78.80;;;;;;5097205;28;20112;-42
2022/07/19 02:19:13;;;;;;;4.95;2.78;;;21.80;78.50;;;;;;5106669;28;20036;-41
2022/07/19 02:21:39;;;;;;;5.82;2.30;;;21.80;77.40;;;;;;5111554;28;20077;-42
2022/07/19 02:24:06;;;;;;;3.63;2.38;;;22.00;75.90;;;;;;5104029;28;20100;-44
2022/07/19 02:26:32;;;;;;;6.03;2.33;;;22.00;75.60;;;;;;5105103;28;20015;-44
2022/07/19 02:28:58;;;;;;;4.95;2.20;;;22.10;75.60;;;;;;5095301;28;20055;-48
2022/07/19 02:31:24;;;;;;;6.40;2.80;;;22.20;74.60;;;;;;5094520;28;20473;-45
2022/07/19 02:33:49;;;;;;;6.57;2.58;;;22.30;74.20;;;;;;5096732;28;20040;-43
2022/07/19 02:36:16;;;;;;;4.47;2.28;;;22.40;73.80;;;;;;5106285;28;20142;-51
2022/07/19 02:38:43;;;;;;;4.70;2.08;;;22.40;73.60;;;;;;5094213;28;20024;-45
2022/07/19 02:41:08;;;;;;;6.05;2.35;;;22.60;72.90;;;;;;5094298;28;20031;-45
2022/07/19 02:43:34;;;;;;;5.95;2.70;;;22.70;72.60;;;;;;5076154;28;20023;-44
2022/07/19 02:46:00;;;;;;;9.13;2.85;;;22.80;71.60;;;;;;5094126;28;20043;-46
2022/07/19 02:48:26;;;;;;;7.40;2.45;;;22.90;71.30;;;;;;5094132;28;20085;-42
2022/07/19 02:50:51;;;;;;;4.97;2.30;;;23.00;71.40;;;;;;5105096;28;20056;-49
2022/07/19 02:53:17;;;;;;;4.57;2.50;;;23.00;71.40;;;;;;5094028;28;20039;-46
2022/07/19 02:55:43;;;;;;;6.78;2.20;;;23.00;71.70;;;;;;5094040;28;20016;-48
2022/07/19 02:58:08;;;;;;;5.57;2.40;;;22.90;71.70;;;;;;5094071;28;20169;-46
2022/07/19 03:00:35;;;;;;;5.70;2.50;;;22.90;72.10;;;;;;5093937;28;20661;-45
2022/07/19 03:05:45;;;;;;;4.40;2.70;;;22.90;71.50;;;;;;5094305;28;20114;-50
2022/07/19 03:08:10;;;;;;;5.68;2.60;;;22.90;71.90;;;;;;5098003;28;20026;-44
2022/07/19 03:10:36;;;;;;;5.45;2.42;;;22.90;71.70;;;;;;5102881;28;20032;-43
2022/07/19 03:13:02;;;;;;;5.57;2.78;;;22.80;71.70;;;;;;5093523;28;20036;-43
2022/07/19 03:15:28;;;;;;;6.95;2.47;;;22.80;71.80;;;;;;5093724;28;20020;-52
2022/07/19 03:17:54;;;;;;;6.28;2.30;;;22.80;72.10;;;;;;5093605;28;20024;-47
2022/07/19 03:20:19;;;;;;;6.60;2.70;;;22.70;72.30;;;;;;5079233;28;20502;-47
2022/07/19 03:22:45;;;;;;;7.07;2.65;;;22.70;72.60;;;;;;5105189;28;20028;-45
2022/07/19 03:25:11;;;;;;;3.97;2.42;;;22.70;72.50;;;;;;5095022;28;20055;-46
2022/07/19 03:27:37;;;;;;;5.07;2.50;;;22.70;72.40;;;;;;5093406;28;20479;-43
2022/07/19 03:30:04;;;;;;;5.20;2.63;;;22.70;71.90;;;;;;5093314;28;20069;-51
2022/07/19 03:32:30;;;;;;;8.25;2.58;;;22.70;72.00;;;;;;5093368;28;20028;-47
2022/07/19 03:34:55;;;;;;;7.10;2.60;;;22.70;72.00;;;;;;5093190;28;20445;-46
2022/07/19 03:37:21;;;;;;;5.28;2.50;;;22.80;71.70;;;;;;5093161;28;20425;-49
2022/07/19 03:39:47;;;;;;;4.68;2.15;;;22.80;71.40;;;;;;5093072;28;20035;-55
2022/07/19 03:42:13;;;;;;;4.18;2.30;;;22.80;70.70;;;;;;5092826;28;20149;-49
2022/07/19 03:44:38;;;;;;;7.32;2.65;;;22.90;70.10;;;;;;5093119;28;20021;-49
2022/07/19 03:47:04;;;;;;;6.55;2.70;;;22.90;70.10;;;;;;5092916;28;20064;-43
2022/07/19 03:49:30;;;;;;;4.65;2.30;;;22.90;69.50;;;;;;5097717;28;20059;-46
2022/07/19 03:51:55;;;;;;;5.38;2.40;;;23.10;69.30;;;;;;5112676;28;20427;-43
2022/07/19 03:54:21;;;;;;;3.15;2.22;;;23.20;68.80;;;;;;5092891;28;20028;-43
2022/07/19 03:56:47;;;;;;;7.78;2.30;;;23.20;68.70;;;;;;5092862;28;20023;-45
2022/07/19 03:59:12;;;;;;;5.65;2.28;;;23.20;68.30;;;;;;5092515;28;20111;-45
2022/07/19 04:01:38;;;;;;;5.75;2.17;;;23.20;68.70;;;;;;5114549;27;20100;-49
2022/07/19 04:04:04;;;;;;;4.50;2.22;;;23.10;68.40;;;;;;5132700;27;20032;-43
2022/07/19 04:06:30;;;;;;;7.88;2.60;;;23.20;68.00;;;;;;5123624;27;20419;-50
2022/07/19 04:08:56;;;;;;;6.72;2.47;;;23.10;68.00;;;;;;5095900;28;20110;-43
2022/07/19 04:11:22;;;;;;;4.68;2.20;;;23.10;68.30;;;;;;5115065;27;20022;-43
2022/07/19 04:13:48;;;;;;;7.95;2.13;;;23.10;68.50;;;;;;5113913;27;20098;-43
2022/07/19 04:16:13;;;;;;;5.63;2.30;;;23.00;68.10;;;;;;5114502;27;20099;-45
2022/07/19 04:18:39;;;;;;;5.38;2.47;;;23.00;68.20;;;;;;5114466;27;20054;-48
2022/07/19 04:21:05;;;;;;;4.63;2.47;;;22.90;68.30;;;;;;5112457;27;20047;-44
2022/07/19 04:23:31;;;;;;;4.72;2.22;;;22.90;69.10;;;;;;5114421;27;20023;-43
2022/07/19 04:25:57;;;;;;;5.97;2.55;;;22.90;69.10;;;;;;5113947;27;20023;-48
2022/07/19 04:28:23;;;;;;;5.50;2.47;;;22.90;68.50;;;;;;5114863;27;20087;-53
2022/07/19 04:30:49;;;;;;;6.78;2.42;;;22.80;69.20;;;;;;5113972;27;20024;-47
2022/07/19 04:33:17;;;;;;;6.68;2.50;;;22.80;69.30;;;;;;5114297;27;20039;-44
2022/07/19 04:35:42;;;;;;;3.85;2.05;;;22.80;69.10;;;;;;5113815;27;20053;-44
2022/07/19 04:38:08;;;;;;;7.60;2.53;;;22.80;68.90;;;;;;5095356;28;20108;-43
2022/07/19 04:40:34;;;;;;;3.55;2.08;;;22.80;69.10;;;;;;5114514;27;20020;-46
2022/07/19 04:42:59;;;;;;;6.25;2.30;;;22.80;68.80;;;;;;5113436;27;20034;-48
2022/07/19 04:45:25;;;;;;;4.15;2.17;;;22.80;68.50;;;;;;5114526;27;20095;-43
2022/07/19 04:47:51;;;;;;;6.68;2.60;;;22.80;69.40;;;;;;5113325;27;20023;-43
2022/07/19 04:50:17;;;;;;;6.13;2.25;;;22.80;68.70;;;;;;5113217;27;20035;-48
2022/07/19 04:52:42;;;;;;;13.07;2.47;;;22.80;69.80;;;;;;5113046;27;20420;-43
2022/07/19 04:55:08;;;;;;;2.97;2.03;;;22.80;69.60;;;;;;5113180;27;20028;-54
2022/07/19 04:57:34;;;;;;;4.30;2.25;;;22.80;70.70;;;;;;5095792;28;20019;-43
2022/07/19 05:00:00;;;;;;;5.90;1.98;;;22.80;71.10;;;;;;5113125;27;20022;-44
2022/07/19 05:02:25;;;;;;;4.95;2.20;;;22.80;70.20;;;;;;5114202;27;20019;-43
2022/07/19 05:04:51;;;;;;;4.18;2.00;;;22.90;69.00;;;;;;5113041;27;20031;-44
2022/07/19 05:07:17;;;;;;;9.10;2.58;;;22.90;70.10;;;;;;5112909;27;20049;-47
2022/07/19 05:09:43;;;;;;;4.05;2.42;;;23.00;70.10;;;;;;5108522;28;20024;-47
2022/07/19 05:12:10;;;;;;;4.85;2.15;;;23.00;71.50;;;;;;5091449;28;20048;-43
2022/07/19 05:14:36;;;;;;;5.63;2.58;;;23.00;71.80;;;;;;5091380;28;20113;-44
2022/07/19 05:17:02;;;;;;;3.78;2.00;;;23.10;70.10;;;;;;5073347;28;20471;-49
2022/07/19 05:19:28;;;;;;;5.18;2.50;;;23.10;69.30;;;;;;5097804;28;20019;-52
2022/07/19 05:21:53;;;;;;;5.82;2.28;;;23.20;69.90;;;;;;5092082;28;20395;-43
2022/07/19 05:24:19;;;;;;;4.78;2.03;;;23.30;70.10;;;;;;5091702;28;20387;-43
2022/07/19 05:26:45;;;;;;;5.22;2.10;;;23.40;73.20;;;;;;5091210;28;20028;-43
2022/07/19 05:29:11;;;;;;;3.35;2.03;;;23.50;72.20;;;;;;5091381;28;20024;-46
2022/07/19 05:31:37;;;;;;;6.63;2.10;;;23.60;74.90;;;;;;5091372;28;20048;-43
2022/07/19 05:34:03;;;;;;;5.68;2.30;;;23.70;71.40;;;;;;5091128;28;20028;-47
2022/07/19 05:36:29;;;;;;;4.95;2.20;;;23.70;73.20;;;;;;5102368;28;20054;-42
2022/07/19 05:38:55;;;;;;;3.70;1.80;;;23.80;70.70;;;;;;5097671;28;20082;-43
2022/07/19 05:41:21;;;;;;;7.00;2.25;;;23.90;72.80;;;;;;5091000;28;20078;-41
2022/07/19 05:43:47;;;;;;;5.00;2.20;;;24.00;73.60;;;;;;5091160;28;20027;-41
2022/07/19 05:46:13;;;;;;;3.30;1.85;;;24.20;72.60;;;;;;5096084;28;20016;-42
2022/07/19 05:48:39;;;;;;;5.70;2.33;;;24.40;75.30;;;;;;5090955;28;20053;-44
2022/07/19 05:51:05;;;;;;;5.32;2.38;;;24.50;74.50;;;;;;5090784;28;20044;-42
2022/07/19 05:53:31;;;;;;;7.30;1.90;;;24.70;71.10;;;;;;5090909;28;20169;-41
2022/07/19 05:55:57;;;;;;;3.33;2.03;;;24.90;71.10;;;;;;5096934;28;20115;-47
2022/07/19 05:58:24;;;;;;;5.20;2.28;;;25.30;69.00;;;;;;5072868;28;20024;-42
2022/07/19 06:03:34;;;;;;;3.83;1.95;;;26.60;66.60;;;;;;5094926;28;20509;-45
2022/07/19 06:06:00;;;;;;;8.18;2.20;;;27.50;63.70;;;;;;5090487;28;20024;-42
2022/07/19 06:08:26;;;;;;;6.00;2.25;;;27.90;56.70;;;;;;5097317;28;20024;-45
2022/07/19 06:10:52;;;;;;;6.63;2.10;;;28.80;56.20;;;;;;5098359;28;20024;-43
2022/07/19 06:13:18;;;;;;;6.88;2.33;;;29.40;53.70;;;;;;5090559;28;20063;-44
2022/07/19 06:15:44;;;;;;;5.60;2.10;;;30.10;52.60;;;;;;5090537;28;20093;-44
2022/07/19 06:18:10;;;;;;;5.05;1.90;;;30.70;51.50;;;;;;5090505;28;20032;-43
2022/07/19 06:20:36;;;;;;;6.45;2.53;;;31.00;52.30;;;;;;5090532;28;20056;-45
2022/07/19 06:23:02;;;;;;;6.85;2.15;;;31.80;49.40;;;;;;5090536;28;20034;-47
2022/07/19 06:25:28;;;;;;;4.97;1.80;;;32.50;48.70;;;;;;5097207;28;20035;-45
2022/07/19 06:27:53;;;;;;;4.53;2.03;;;33.10;45.70;;;;;;5107796;28;20382;-43
2022/07/19 06:30:19;;;;;;;5.32;2.10;;;33.30;43.50;;;;;;5091699;28;20020;-43
2022/07/19 06:32:45;;;;;;;3.97;2.20;;;33.50;45.30;;;;;;5090114;28;20028;-46
2022/07/19 06:35:10;;;;;;;8.13;2.13;;;33.30;40.30;;;;;;5091953;28;20028;-43
2022/07/19 06:37:37;;;;;;;6.60;2.17;;;33.40;43.90;;;;;;5111520;28;20387;-52
2022/07/19 06:40:03;;;;;;;4.88;2.30;;;32.60;39.70;;;;;;5112416;28;20062;-45
2022/07/19 06:42:29;;;;;;;3.45;1.95;;;32.80;44.10;;;;;;5098378;28;20016;-43
2022/07/19 06:44:56;;;;;;;4.13;1.88;;;33.00;43.50;;;;;;5112371;28;20020;-43
2022/07/19 06:47:21;;;;;;;8.45;1.83;;;33.20;42.80;;;;;;5119504;27;20098;-47
2022/07/19 06:49:47;;;;;;;3.78;2.17;;;32.60;40.70;;;;;;5116829;27;20119;-47
2022/07/19 06:52:13;;;;;;;6.90;2.15;;;32.80;41.10;;;;;;5119050;27;20118;-44
2022/07/19 06:54:38;;;;;;;3.58;1.85;;;32.60;40.40;;;;;;5117026;27;20066;-47
2022/07/19 06:57:06;;;;;;;4.82;1.88;;;33.10;42.40;;;;;;5117768;27;20102;-44
2022/07/19 06:59:32;;;;;;;9.13;1.80;;;32.90;39.10;;;;;;5118733;27;20024;-44
2022/07/19 07:01:57;;;;;;;6.35;1.73;;;32.30;39.20;;;;;;5116977;27;20435;-43
2022/07/19 07:04:23;;;;;;;6.05;1.83;;;31.70;40.70;;;;;;5119539;27;20087;-43
2022/07/19 07:06:49;;;;;;;6.60;2.00;;;31.70;40.70;;;;;;5116768;27;20051;-43
2022/07/19 07:09:14;;;;;;;5.72;1.83;;;32.00;41.40;;;;;;5114153;28;20506;-43
2022/07/19 07:11:40;;;;;;;5.53;1.90;;;32.10;41.70;;;;;;5094482;28;20394;-44
2022/07/19 07:14:06;;;;;;;6.22;1.77;;;32.30;41.60;;;;;;5093902;28;20463;-43
2022/07/19 07:16:31;;;;;;;4.80;1.75;;;32.40;40.50;;;;;;5093227;28;20444;-44
2022/07/19 07:18:57;;;;;;;3.95;2.13;;;32.50;40.00;;;;;;5093793;28;20082;-44
2022/07/19 07:21:23;;;;;;;4.22;2.05;;;32.50;41.80;;;;;;5099770;28;20509;-44
2022/07/19 07:23:48;;;;;;;4.63;1.75;;;33.40;40.10;;;;;;5108103;28;20053;-44
2022/07/19 07:26:15;;;;;;;8.70;2.03;;;34.20;38.80;;;;;;5100610;28;20024;-44
2022/07/19 07:28:41;;;;;;;7.53;1.70;;;33.70;39.80;;;;;;5093296;28;20051;-45
2022/07/19 07:31:06;;;;;;;5.20;1.83;;;34.00;40.40;;;;;;5093583;28;20060;-49
2022/07/19 07:33:32;;;;;;;4.53;1.80;;;33.40;38.90;;;;;;5092921;28;20035;-44
2022/07/19 07:35:58;;;;;;;4.93;1.67;;;34.20;38.30;;;;;;5093277;28;20183;-50
2022/07/19 07:38:24;;;;;;;2.78;1.55;;;35.00;40.40;;;;;;5093438;28;20119;-51
2022/07/19 07:40:50;;;;;;;6.75;2.40;;;35.60;37.90;;;;;;5113282;27;20066;-49
2022/07/19 07:43:15;;;;;;;4.47;2.00;;;35.70;36.00;;;;;;5113368;27;20027;-44
2022/07/19 07:45:42;;;;;;;4.85;1.80;;;35.90;36.70;;;;;;5121310;27;20034;-45
2022/07/19 07:48:07;;;;;;;4.47;1.60;;;35.90;35.50;;;;;;5121823;27;20478;-44
2022/07/19 07:50:33;;;;;;;6.25;2.17;;;35.80;37.70;;;;;;5128487;27;20081;-44
2022/07/19 07:52:59;;;;;;;4.93;1.70;;;35.30;36.20;;;;;;5116297;27;20039;-44
2022/07/19 07:55:25;;;;;;;3.75;1.60;;;34.70;38.40;;;;;;5124826;27;20020;-44
2022/07/19 07:57:51;;;;;;;5.00;1.40;;;34.40;37.10;;;;;;5129016;27;20031;-44
2022/07/19 08:00:16;;;;;;;6.22;2.08;;;34.80;37.40;;;;;;5125413;27;20023;-50
2022/07/19 08:02:44;;;;;;;5.10;1.88;;;35.50;37.80;;;;;;5128253;27;20022;-47
2022/07/19 08:05:10;;;;;;;3.92;1.80;;;35.80;34.90;;;;;;5127182;27;20015;-44
2022/07/19 08:07:36;;;;;;;6.50;2.05;;;35.70;35.90;;;;;;5085007;28;20505;-50
2022/07/19 08:10:08;;;;;;;5.22;1.80;;;35.30;35.70;;;;;;5092470;28;20528;-43
2022/07/19 08:12:34;;;;;;;5.45;1.80;;;35.50;37.70;;;;;;5092430;28;20043;-45
2022/07/19 08:14:59;;;;;;;5.25;1.73;;;36.60;35.00;;;;;;5096187;28;20024;-43
2022/07/19 08:17:25;;;;;;;6.13;1.90;;;37.10;36.90;;;;;;5111376;28;20034;-52
2022/07/19 08:19:51;;;;;;;4.65;1.80;;;37.50;34.40;;;;;;5095915;28;20124;-51
2022/07/19 08:22:20;;;;;;;4.55;1.90;;;38.40;35.70;;;;;;5101016;28;20051;-44
2022/07/19 08:24:46;;;;;;;4.22;1.80;;;38.70;33.60;;;;;;5109065;28;20032;-44
2022/07/19 08:27:13;;;;;;;12.63;3.15;;;38.50;31.70;;;;;;5099373;28;20538;-48
2022/07/19 08:29:39;;;;;;;5.80;2.10;;;37.10;33.60;;;;;;5110873;27;20024;-46
2022/07/19 08:32:05;;;;;;;6.15;2.10;;;36.80;32.60;;;;;;5125130;27;20116;-49
2022/07/19 08:34:31;;;;;;;11.40;2.58;;;37.00;34.00;;;;;;5112448;27;20102;-45
2022/07/19 08:36:57;;;;;;;5.72;2.30;;;37.20;32.80;;;;;;5111516;27;20110;-57
2022/07/19 08:39:22;;;;;;;5.90;2.53;;;37.20;32.60;;;;;;5112154;28;20051;-57
2022/07/19 08:41:48;;;;;;;6.38;1.80;;;37.30;33.40;;;;;;5113282;27;20541;-58
2022/07/19 08:44:17;;;;;;;4.00;2.05;;;38.20;34.70;;;;;;5122313;27;20355;-58
2022/07/19 08:46:44;;;;;;;8.13;2.22;;;38.70;34.00;;;;;;5116131;27;20020;-44
2022/07/19 08:49:10;;;;;;;8.05;2.67;;;38.30;31.30;;;;;;5121552;27;20027;-46
2022/07/19 08:51:36;;;;;;;8.57;2.55;;;38.50;35.20;;;;;;5112349;27;20446;-45
2022/07/19 08:54:02;;;;;;;6.70;2.30;;;38.70;34.10;;;;;;5128723;27;20011;-47
2022/07/19 08:59:13;;;;;;;6.97;2.70;;;38.60;31.20;;;;;;5116111;27;20136;-53
2022/07/19 09:01:39;;;;;;;7.47;2.67;;;38.90;31.90;;;;;;5123897;27;20033;-47
2022/07/19 09:04:05;;;;;;;5.75;2.40;;;38.90;31.60;;;;;;5114053;27;20034;-48
2022/07/19 09:06:39;;;;;;;5.03;2.30;;;39.00;30.60;;;;;;5111540;28;20019;-46
2022/07/19 09:09:05;;;;;;;4.40;2.25;;;39.20;31.40;;;;;;5100747;28;20024;-43
2022/07/19 09:11:42;;;;;;;5.07;2.40;;;38.70;32.10;;;;;;5085364;27;20501;-47
2022/07/19 09:14:09;;;;;;;6.07;2.47;;;38.80;31.90;;;;;;5112093;27;20110;-45
2022/07/19 09:16:54;;;;;;;6.40;2.70;;;38.90;32.50;;;;;;5112112;27;20248;-44
2022/07/19 09:19:21;;;;;;;7.57;2.70;;;38.70;32.40;;;;;;5113594;27;20031;-44
2022/07/19 09:21:57;;;;;;;7.88;2.65;;;38.10;32.50;;;;;;5111455;27;20019;-47
2022/07/19 09:24:24;;;;;;;7.82;2.80;;;39.10;32.20;;;;;;5110689;27;20063;-50
2022/07/19 09:27:02;;;;;;;10.40;2.53;;;38.70;30.60;;;;;;5111264;28;20027;-48
2022/07/19 09:29:31;;;;;;;6.63;2.58;;;37.80;31.00;;;;;;5108036;28;20019;-47
2022/07/19 09:32:07;;;;;;;5.70;2.30;;;38.40;34.50;;;;;;5112427;27;20050;-44
2022/07/19 09:34:39;;;;;;;8.02;2.70;;;38.70;31.50;;;;;;5094232;27;20032;-43
2022/07/19 09:37:07;;;;;;;10.15;2.53;;;38.90;30.90;;;;;;5115532;28;20111;-46
2022/07/19 09:39:33;;;;;;;7.68;3.10;;;38.70;30.20;;;;;;5126849;27;20042;-51
2022/07/19 09:42:02;;;;;;;5.13;2.85;;;38.70;32.00;;;;;;5113283;28;20019;-46
2022/07/19 09:44:28;;;;;;;6.32;3.08;;;39.10;31.60;;;;;;5106210;28;20386;-49
2022/07/19 09:46:54;;;;;;;4.32;2.70;;;38.20;30.40;;;;;;5114809;28;20023;-46
2022/07/19 09:49:20;;;;;;;5.50;2.88;;;38.20;31.80;;;;;;5104313;28;20024;-45
2022/07/19 09:51:51;;;;;;;8.27;3.22;;;38.60;31.40;;;;;;5106707;28;20024;-46
2022/07/19 09:54:22;;;;;;;5.30;2.75;;;37.90;31.30;;;;;;5108799;28;20028;-46
2022/07/19 09:56:52;;;;;;;4.30;2.65;;;39.00;32.10;;;;;;5105615;28;20455;-50
2022/07/19 09:59:19;;;;;;;8.10;2.70;;;39.20;32.70;;;;;;5109405;28;20032;-46
2022/07/19 10:01:50;;;;;;;7.72;2.97;;;38.70;30.00;;;;;;5108742;28;20080;-50
2022/07/19 10:04:18;;;;;;;12.63;3.22;;;38.80;30.40;;;;;;5107281;28;20072;-46
2022/07/19 10:06:44;;;;;;;;;;;38.80;30.00;;;;;;5111903;28;20083;-45
2022/07/19 10:09:12;;;;;;;8.05;2.88;;;38.50;32.30;;;;;;5103469;28;19907;-45
2022/07/19 10:11:39;;;;;;;;;;;39.00;30.00;;;;;;5100736;28;20387;-52
2022/07/19 10:14:05;;;;;;;6.03;3.10;;;38.20;30.40;;;;;;5092996;28;20354;-49
2022/07/19 10:17:03;;;;;;;6.82;3.10;;;37.50;31.20;;;;;;5096180;28;20027;-43
2022/07/19 10:19:37;;;;;;;;;;;37.60;32.90;;;;;;5104727;28;20022;-43
2022/07/19 10:22:04;;;;;;;6.13;2.92;;;37.60;31.80;;;;;;5106865;28;19953;-43
2022/07/19 10:24:48;;;;;;;7.35;2.83;;;38.50;33.40;;;;;;5114707;27;20046;-44
2022/07/19 10:27:16;;;;;;;7.70;2.95;;;38.90;31.50;;;;;;5113966;27;20095;-43
2022/07/19 10:29:42;;;;;;;6.32;3.17;;;38.30;29.80;;;;;;5114711;27;20030;-44
2022/07/19 10:32:10;;;;;;;6.28;2.90;;;38.00;30.00;;;;;;5114635;27;20031;-43
2022/07/19 10:34:37;;;;;;;9.63;3.15;;;38.30;31.80;;;;;;5115157;27;20019;-47
2022/07/19 10:37:03;;;;;;;6.68;2.92;;;38.70;34.00;;;;;;5113414;27;20054;-45
2022/07/19 10:39:36;;;;;;;6.13;2.80;;;38.70;29.90;;;;;;5112826;27;20031;-44
2022/07/19 10:42:07;;;;;;;7.05;3.05;;;39.00;30.60;;;;;;5113097;27;20047;-44
2022/07/19 10:44:35;;;;;;;8.50;3.10;;;39.10;29.40;;;;;;5110976;28;20030;-44
2022/07/19 10:47:00;;;;;;;6.80;3.28;;;38.10;29.80;;;;;;5113759;27;20036;-48
2022/07/19 10:49:46;;;;;;;8.77;3.22;;;37.90;29.90;;;;;;5114074;27;20020;-45
2022/07/19 10:52:39;;;;;;;7.30;3.05;;;37.60;30.00;;;;;;5093452;27;20042;-48
2022/07/19 10:55:17;;;;;;;7.57;3.10;;;37.70;31.00;;;;;;5107270;27;20027;-44
2022/07/19 10:57:43;;;;;;;8.40;3.40;;;38.30;31.20;;;;;;5115984;27;20079;-53
2022/07/19 11:00:25;;;;;;;5.38;2.97;;;38.70;32.00;;;;;;5123094;27;20027;-49
2022/07/19 11:02:53;;;;;;;8.75;3.35;;;38.50;30.90;;;;;;5114150;27;20031;-50
2022/07/19 11:05:27;;;;;;;8.23;3.33;;;38.60;30.70;;;;;;5113585;28;20011;-43
2022/07/19 11:07:57;;;;;;;12.88;3.53;;;38.50;31.30;;;;;;5112689;28;20267;-47
2022/07/19 11:10:25;;;;;;;8.30;3.35;;;39.00;29.30;;;;;;5113047;28;20038;-43
2022/07/19 11:12:52;;;;;;;8.65;3.70;;;38.80;30.20;;;;;;5115583;27;20031;-45
2022/07/19 11:15:18;;;;;;;8.85;3.53;;;38.50;30.70;;;;;;5116070;27;20024;-49
2022/07/19 11:17:55;;;;;;;8.05;3.08;;;38.70;30.60;;;;;;5114237;27;20040;-44
2022/07/19 11:20:26;;;;;;;5.68;3.20;;;38.20;30.00;;;;;;5114640;27;20038;-46
2022/07/19 11:22:55;;;;;;;6.43;3.60;;;38.40;30.00;;;;;;5112373;27;20046;-45
2022/07/19 11:25:41;;;;;;;5.60;3.17;;;38.60;31.50;;;;;;5123561;27;20485;-43
2022/07/19 11:28:18;;;;;;;8.05;3.45;;;38.20;29.10;;;;;;5114314;27;20059;-43
2022/07/19 11:30:44;;;;;;;7.35;3.92;;;37.90;30.90;;;;;;5113114;28;20027;-43
2022/07/19 11:33:09;;;;;;;10.57;3.63;;;37.60;29.40;;;;;;5112196;28;20096;-44
2022/07/19 11:35:35;;;;;;;6.35;3.10;;;37.80;29.30;;;;;;5113270;27;20073;-44
2022/07/19 11:38:01;;;;;;;10.32;3.65;;;38.10;30.80;;;;;;5113080;28;20028;-54
2022/07/19 11:40:36;;;;;;;7.22;3.42;;;38.10;29.20;;;;;;5114891;27;20024;-44
2022/07/19 11:43:06;;;;;;;7.32;3.53;;;37.20;29.90;;;;;;5114009;27;20106;-48
2022/07/19 11:45:47;;;;;;;8.02;3.47;;;37.30;30.50;;;;;;5111846;28;20058;-47
2022/07/19 11:48:27;;;;;;;7.93;2.80;;;37.20;31.90;;;;;;5111415;28;20486;-47
2022/07/19 11:51:00;;;;;;;7.47;3.17;;;37.60;31.70;;;;;;5113149;27;20115;-46
2022/07/19 11:53:26;;;;;;;10.93;3.90;;;38.20;30.20;;;;;;5115567;27;20032;-49
2022/07/19 11:55:52;;;;;;;8.48;3.42;;;38.10;30.10;;;;;;5101282;27;20023;-47
2022/07/19 11:58:17;;;;;;;10.43;3.60;;;38.00;29.70;;;;;;5108873;28;20076;-45
2022/07/19 12:00:44;;;;;;;8.32;3.58;;;38.20;29.60;;;;;;5110193;27;20024;-54
2022/07/19 12:03:15;;;;;;;9.88;4.15;;;38.00;29.40;;;;;;5115834;27;20027;-50
2022/07/19 12:06:04;;;;;;;5.55;3.08;;;37.70;29.90;;;;;;5110137;27;20035;-52
2022/07/19 12:08:42;;;;;;;8.05;3.58;;;37.90;29.80;;;;;;5110727;27;20363;-52
2022/07/19 12:11:21;;;;;;;7.72;3.65;;;37.90;30.00;;;;;;5111017;27;20028;-49
2022/07/19 12:13:47;;;;;;;6.85;3.30;;;37.40;29.40;;;;;;5111949;27;20042;-42
2022/07/19 12:16:13;;;;;;;7.22;3.60;;;37.60;30.10;;;;;;5112211;27;20430;-47
2022/07/19 12:18:55;;;;;;;9.48;3.55;;;37.70;30.50;;;;;;5118951;27;20023;-46
2022/07/19 12:21:41;;;;;;;7.60;3.30;;;38.30;29.60;;;;;;5113970;27;20054;-49
2022/07/19 12:24:23;;;;;;;7.65;3.17;;;38.40;30.30;;;;;;5122010;27;20110;-46
2022/07/19 12:26:54;;;;;;;8.30;3.85;;;38.50;29.60;;;;;;5109416;27;20020;-48
2022/07/19 12:29:49;;;;;;;8.85;3.67;;;39.00;30.00;;;;;;5113123;27;20030;-46
2022/07/19 12:32:36;;;;;;;6.78;3.63;;;37.90;28.70;;;;;;5107930;27;20070;-53
2022/07/19 12:35:15;;;;;;;6.10;3.43;;;38.30;30.60;;;;;;5103166;27;20525;-46
2022/07/19 12:37:46;;;;;;;10.23;3.85;;;38.00;29.00;;;;;;5110359;27;20035;-47
2022/07/19 12:40:20;;;;;;;9.43;3.60;;;38.10;30.50;;;;;;5106249;28;20035;-54
2022/07/19 12:43:00;;;;;;;6.72;3.53;;;38.10;29.50;;;;;;5107939;27;20035;-51
2022/07/19 12:45:39;;;;;;;7.68;3.25;;;37.90;30.00;;;;;;5107939;27;20023;-46
2022/07/19 12:48:05;;;;;;;6.30;3.17;;;37.70;30.10;;;;;;5109699;28;20039;-43
2022/07/19 12:50:37;;;;;;;7.13;3.42;;;38.10;30.60;;;;;;5109255;28;20987;-48
2022/07/19 12:53:08;;;;;;;6.80;3.30;;;38.30;29.40;;;;;;5112229;27;20031;-49
2022/07/19 12:55:35;;;;;;;9.65;3.60;;;38.40;29.70;;;;;;5111770;28;20034;-51
2022/07/19 12:58:03;;;;;;;6.53;3.33;;;37.70;28.50;;;;;;5102176;27;20019;-45